Time;durP1;ratioP1;P1;durP2;ratioP2;P2;SDS_P1;SDS_P2;PMS_P1;PMS_P2;Temp;Humidity;BMP_temperature;BMP_pressure;BME280_temperature;BME280_humidity;BME280_pressure;Samples;Min_cycle;Max_cycle;Signal;HPM_P1;HPM_P2
2021/03/14 00:02:33;;;;;;;;;15.00;13.00;;;;;4.59;79.03;101543.06;4847923;29;11748;-80
2021/03/14 00:05:30;;;;;;;;;22.25;20.00;;;;;4.62;78.84;101539.81;4848113;29;12439;-80
2021/03/14 00:08:28;;;;;;;;;20.25;20.00;;;;;4.67;79.00;101544.47;4848323;29;11745;-80
2021/03/14 00:11:24;;;;;;;;;24.75;24.75;;;;;4.61;79.47;101554.59;4860961;29;12444;-80
2021/03/14 00:14:20;;;;;;;;;19.50;17.50;;;;;4.67;78.91;101542.53;4848390;29;11716;-81
2021/03/14 00:17:16;;;;;;;;;22.25;22.25;;;;;4.85;78.20;101537.66;4860844;29;11759;-81
2021/03/14 00:20:12;;;;;;;;;16.50;16.50;;;;;4.78;78.77;101540.66;4860830;29;12693;-81
2021/03/14 00:23:09;;;;;;;;;4.50;4.50;;;;;4.78;78.36;101534.38;4863024;29;11748;-81
2021/03/14 00:26:05;;;;;;;;;21.00;20.25;;;;;4.75;78.49;101532.97;4863642;29;11789;-81
2021/03/14 00:29:01;;;;;;;;;17.25;16.75;;;;;4.79;78.61;101531.34;4847806;29;11752;-81
2021/03/14 00:31:58;;;;;;;;;17.75;14.75;;;;;4.97;77.83;101530.00;4863835;29;11716;-81
2021/03/14 00:34:54;;;;;;;;;17.00;17.00;;;;;4.97;77.10;101530.00;4872586;29;11810;-81
2021/03/14 00:37:51;;;;;;;;;13.50;13.50;;;;;4.94;77.60;101525.88;4862366;29;11727;-81
2021/03/14 00:40:46;;;;;;;;;15.00;15.00;;;;;4.92;77.60;101527.25;4878274;29;11689;-81
2021/03/14 00:43:42;;;;;;;;;18.25;16.25;;;;;4.66;78.31;101518.97;4878451;29;11731;-81
2021/03/14 00:46:38;;;;;;;;;16.00;16.00;;;;;4.67;78.12;101528.84;4878282;29;11752;-81
2021/03/14 00:49:33;;;;;;;;;16.00;16.00;;;;;4.64;77.91;101534.06;4871615;29;11729;-81
2021/03/14 00:52:29;;;;;;;;;15.50;15.50;;;;;4.77;77.91;101525.31;4860245;29;11795;-80
2021/03/14 00:55:24;;;;;;;;;19.50;16.75;;;;;4.69;78.64;101536.81;4859730;29;11781;-81
2021/03/14 00:57:51;;;;;;;;;14.25;14.25;;;;;4.62;78.34;101537.06;4860804;29;11745;-81
2021/03/14 01:00:47;;;;;;;;;16.75;15.50;;;;;4.76;78.43;101539.31;4847234;29;11713;-80
2021/03/14 01:03:43;;;;;;;;;13.50;13.50;;;;;4.73;77.87;101537.91;4865950;29;11719;-81
2021/03/14 01:06:38;;;;;;;;;12.25;12.25;;;;;4.68;78.37;101546.97;4872027;29;11718;-81
2021/03/14 01:09:34;;;;;;;;;16.75;16.75;;;;;4.81;78.10;101550.25;4860045;29;11765;-80
2021/03/14 01:12:29;;;;;;;;;12.75;12.75;;;;;4.73;78.19;101535.16;4859311;29;11762;-80
2021/03/14 01:15:25;;;;;;;;;11.50;11.25;;;;;4.83;77.96;101539.84;4860198;29;11691;-80
2021/03/14 01:18:21;;;;;;;;;12.00;12.00;;;;;4.85;77.77;101534.94;4860469;29;11760;-80
2021/03/14 01:21:18;;;;;;;;;12.50;12.50;;;;;4.90;76.92;101534.91;4847209;29;11723;-81
2021/03/14 01:24:13;;;;;;;;;17.00;17.00;;;;;4.87;77.04;101530.81;4858775;29;11761;-81
2021/03/14 01:27:09;;;;;;;;;12.25;12.25;;;;;4.89;77.06;101533.28;4847456;29;11716;-81
2021/03/14 01:30:06;;;;;;;;;16.75;15.25;;;;;4.84;77.19;101536.84;4860774;29;11785;-80
2021/03/14 01:33:02;;;;;;;;;8.75;8.75;;;;;4.84;76.99;101538.75;4865288;29;11791;-81
2021/03/14 01:35:57;;;;;;;;;10.00;10.00;;;;;4.83;76.40;101546.16;4853225;29;11690;-79
2021/03/14 01:38:53;;;;;;;;;12.00;12.00;;;;;4.94;76.10;101544.25;4861025;29;11707;-80
2021/03/14 01:41:48;;;;;;;;;9.25;9.25;;;;;4.94;76.32;101556.03;4859371;29;11698;-80
2021/03/14 01:44:47;;;;;;;;;11.25;11.25;;;;;4.90;76.46;101559.59;4859495;29;11685;-80
2021/03/14 01:47:45;;;;;;;;;12.00;12.00;;;;;4.92;75.94;101560.16;4860349;29;11752;-80
2021/03/14 01:50:41;;;;;;;;;14.50;10.75;;;;;5.02;76.22;101565.66;4862459;29;11722;-80
2021/03/14 01:53:36;;;;;;;;;9.75;9.00;;;;;4.98;76.39;101562.63;4866065;29;11700;-80
2021/03/14 01:56:32;;;;;;;;;17.00;12.00;;;;;4.85;76.47;101567.81;4873717;29;11660;-80
2021/03/14 01:59:28;;;;;;;;;13.00;13.00;;;;;4.91;76.23;101570.31;4851006;29;11848;-81
2021/03/14 02:02:23;;;;;;;;;10.25;10.25;;;;;4.86;76.45;101574.94;4863397;29;11715;-81
2021/03/14 02:05:20;;;;;;;;;11.50;11.50;;;;;4.88;76.00;101572.75;4863271;29;11740;-80
2021/03/14 02:08:16;;;;;;;;;10.50;10.50;;;;;4.89;75.45;101574.38;4862719;29;11708;-80
2021/03/14 02:11:12;;;;;;;;;10.50;10.50;;;;;4.94;75.26;101574.41;4849721;29;12541;-80
2021/03/14 02:14:09;;;;;;;;;12.25;12.25;;;;;4.92;74.83;101569.19;4862222;29;11755;-80
2021/03/14 02:17:07;;;;;;;;;12.75;11.50;;;;;4.91;74.98;101578.53;4849796;29;11712;-80
2021/03/14 02:20:13;;;;;;;;;12.25;11.50;;;;;4.93;74.29;101573.59;4861954;29;11715;-81
2021/03/14 02:23:17;;;;;;;;;12.50;12.00;;;;;4.96;74.58;101577.69;4861913;29;11717;-80
2021/03/14 02:26:39;;;;;;;;;9.75;9.75;;;;;4.97;74.57;101584.81;4850162;29;11704;-81
2021/03/14 02:29:36;;;;;;;;;8.50;7.50;;;;;4.92;74.48;101590.31;4851024;29;11704;-80
2021/03/14 02:32:33;;;;;;;;;10.25;10.25;;;;;4.80;75.05;101584.25;4861881;29;11786;-79
2021/03/14 02:35:30;;;;;;;;;10.50;10.50;;;;;4.87;74.93;101585.63;4862890;29;11682;-80
2021/03/14 02:38:26;;;;;;;;;9.50;9.50;;;;;4.90;74.68;101582.34;4870672;29;11750;-80
2021/03/14 02:41:23;;;;;;;;;8.25;8.25;;;;;4.86;75.22;101577.69;4880922;29;11671;-80
2021/03/14 02:44:23;;;;;;;;;10.75;10.75;;;;;4.85;75.10;101576.03;4878676;29;11735;-79
2021/03/14 02:47:21;;;;;;;;;12.00;9.25;;;;;4.96;74.99;101577.69;4866201;29;12466;-80
2021/03/14 02:50:05;;;;;;;;;13.00;13.00;;;;;4.85;75.17;101581.53;4867429;29;11688;-80
2021/03/14 02:53:02;;;;;;;;;15.25;13.50;;;;;4.81;75.75;101581.22;4849169;29;11684;-80
2021/03/14 02:55:58;;;;;;;;;10.25;10.25;;;;;4.74;76.01;101586.97;4862794;29;11705;-79
2021/03/14 02:58:54;;;;;;;;;15.75;14.25;;;;;4.72;75.56;101582.84;4860338;29;11696;-78
2021/03/14 03:01:52;;;;;;;;;9.75;9.75;;;;;4.84;74.97;101588.09;4851149;29;11694;-78
2021/03/14 03:04:50;;;;;;;;;13.25;13.25;;;;;4.73;75.88;101588.06;4862314;29;11700;-78
2021/03/14 03:07:48;;;;;;;;;12.75;12.25;;;;;4.88;75.02;101583.72;4862785;29;11759;-78
2021/03/14 03:10:46;;;;;;;;;9.25;9.25;;;;;4.81;75.28;101591.38;4879020;29;11737;-78
2021/03/14 03:13:42;;;;;;;;;9.50;9.50;;;;;4.82;75.19;101590.25;4868699;29;11214;-80
2021/03/14 03:16:40;;;;;;;;;6.00;6.00;;;;;4.77;75.47;101593.84;4861824;29;11662;-79
2021/03/14 03:19:36;;;;;;;;;13.00;13.00;;;;;4.74;75.51;101583.41;4848919;29;11661;-79
2021/03/14 03:22:33;;;;;;;;;9.50;9.50;;;;;4.78;75.95;101586.44;4861516;29;11811;-79
2021/03/14 03:25:28;;;;;;;;;11.00;11.00;;;;;4.81;75.35;101592.19;4861015;29;11748;-80
2021/03/14 03:28:41;;;;;;;;;11.25;11.25;;;;;4.80;75.65;101578.75;4850894;29;12415;-79
2021/03/14 03:31:30;;;;;;;;;9.50;9.50;;;;;4.87;75.85;101582.06;4850296;29;11730;-79
2021/03/14 03:34:26;;;;;;;;;12.00;12.00;;;;;4.83;75.91;101584.53;4870866;29;11761;-79
2021/03/14 03:37:22;;;;;;;;;6.00;6.00;;;;;4.79;76.26;101585.34;4867736;29;11720;-79
2021/03/14 03:40:22;;;;;;;;;16.25;16.25;;;;;4.74;76.36;101584.22;4849570;29;11664;-79
2021/03/14 03:43:23;;;;;;;;;19.50;19.50;;;;;4.76;76.21;101578.50;4855848;29;11695;-79
2021/03/14 03:46:19;;;;;;;;;17.50;17.50;;;;;4.84;76.19;101574.41;4868014;29;11728;-79
2021/03/14 03:49:21;;;;;;;;;20.00;18.75;;;;;4.81;76.12;101583.97;4868574;29;11717;-79
2021/03/14 03:52:19;;;;;;;;;23.00;20.25;;;;;4.76;76.10;101575.75;4855844;29;11739;-80
2021/03/14 03:55:17;;;;;;;;;23.50;20.25;;;;;4.77;76.27;101577.41;4868151;29;12474;-80
2021/03/14 03:58:13;;;;;;;;;27.50;24.50;;;;;4.87;76.05;101573.84;4858070;29;11742;-79
2021/03/14 04:01:10;;;;;;;;;30.25;30.25;;;;;4.87;75.87;101579.31;4870216;29;11725;-80
2021/03/14 04:04:06;;;;;;;;;28.25;27.25;;;;;4.91;75.73;101567.56;4855579;29;11751;-79
2021/03/14 04:07:03;;;;;;;;;33.50;33.50;;;;;4.87;76.03;101562.88;4867184;29;12531;-80
2021/03/14 04:10:00;;;;;;;;;21.00;19.50;;;;;4.91;75.83;101559.34;4849708;29;11756;-80
2021/03/14 04:12:58;;;;;;;;;30.75;27.75;;;;;4.94;75.98;101550.56;4867789;29;11861;-80
2021/03/14 04:15:53;;;;;;;;;27.50;23.25;;;;;4.98;75.87;101548.06;4860459;29;11720;-80
2021/03/14 04:18:51;;;;;;;;;31.25;29.25;;;;;5.05;75.52;101548.63;4860160;29;11702;-79
2021/03/14 04:21:50;;;;;;;;;23.50;23.25;;;;;5.00;76.13;101544.00;4868147;29;11751;-80
2021/03/14 04:24:42;;;;;;;;;25.00;24.50;;;;;4.90;76.45;101541.22;4870535;29;11741;-80
2021/03/14 04:27:38;;;;;;;;;28.50;27.00;;;;;5.06;76.27;101546.72;4868841;29;11732;-80
2021/03/14 04:30:35;;;;;;;;;53.00;46.67;;;;;5.13;76.15;101541.78;4867786;29;11760;-80
2021/03/14 04:33:32;;;;;;;;;51.25;45.00;;;;;5.09;76.35;101546.19;4870036;29;11700;-80
2021/03/14 04:36:28;;;;;;;;;30.50;27.25;;;;;5.21;76.02;101547.56;4870536;29;11714;-80
2021/03/14 04:39:24;;;;;;;;;23.50;23.50;;;;;5.28;75.36;101550.00;4850232;29;11738;-81
2021/03/14 04:42:22;;;;;;;;;16.50;16.50;;;;;5.18;75.62;101553.59;4860474;29;11726;-81
2021/03/14 04:45:18;;;;;;;;;17.75;17.75;;;;;5.22;75.39;101545.66;4850299;29;11722;-79
2021/03/14 04:48:17;;;;;;;;;16.25;16.25;;;;;5.29;75.72;101548.91;4862859;29;12450;-80
2021/03/14 04:51:14;;;;;;;;;20.25;20.25;;;;;5.36;75.26;101554.13;4847870;29;11757;-79
2021/03/14 04:54:11;;;;;;;;;27.25;27.00;;;;;5.26;75.41;101555.78;4865509;29;11770;-79
2021/03/14 04:57:07;;;;;;;;;28.25;26.25;;;;;5.31;75.51;101552.22;4861620;29;11735;-79
2021/03/14 05:00:07;;;;;;;;;22.50;21.75;;;;;5.25;75.64;101556.06;4855926;29;11842;-79
2021/03/14 05:02:36;;;;;;;;;31.50;28.75;;;;;5.22;75.43;101549.22;4860906;29;11744;-80
2021/03/14 05:05:33;;;;;;;;;29.50;29.00;;;;;5.25;75.17;101548.66;4866586;29;11722;-79
2021/03/14 05:08:30;;;;;;;;;36.50;34.00;;;;;5.25;75.29;101554.13;4859432;29;12551;-79
2021/03/14 05:11:25;;;;;;;;;35.00;33.50;;;;;5.29;74.80;101559.88;4859741;29;11853;-79
2021/03/14 05:14:22;;;;;;;;;38.50;37.50;;;;;5.26;75.10;101555.78;4860000;29;11760;-79
2021/03/14 05:17:18;;;;;;;;;42.50;40.50;;;;;5.15;75.79;101548.66;4863071;29;11741;-80
2021/03/14 05:20:20;;;;;;;;;46.75;42.75;;;;;5.21;75.78;101554.94;4861194;29;11780;-81
2021/03/14 05:23:16;;;;;;;;;34.00;34.00;;;;;5.21;75.23;101564.03;4850490;29;11690;-81
2021/03/14 05:26:13;;;;;;;;;49.75;45.00;;;;;5.32;75.83;101559.34;4850145;29;11723;-78
2021/03/14 05:28:50;;;;;;;;;46.00;42.25;;;;;5.26;74.02;101555.78;4839814;29;11857;-79
2021/03/14 05:31:33;;;;;;;;;49.50;45.50;;;;;5.30;74.58;101556.06;4848094;29;11777;-80
2021/03/14 05:34:29;;;;;;;;;25.00;24.25;;;;;5.38;74.71;101557.44;4858727;29;11857;-80
2021/03/14 05:36:56;;;;;;;;;22.00;22.00;;;;;5.45;73.95;101560.72;4851905;29;11738;-80
2021/03/14 05:39:24;;;;;;;;;25.25;25.25;;;;;5.55;73.59;101557.97;4854299;29;11715;-79
2021/03/14 05:41:51;;;;;;;;;19.75;19.75;;;;;5.57;74.05;101559.34;4853484;29;11797;-79
2021/03/14 05:44:47;;;;;;;;;28.25;24.50;;;;;5.70;72.76;101554.38;4862912;29;11677;-80
2021/03/14 05:47:45;;;;;;;;;18.50;16.25;;;;;5.64;72.55;101550.81;4846058;29;11752;-81
2021/03/14 05:50:20;;;;;;;;;23.25;21.00;;;;;5.79;72.59;101550.78;4846772;29;11759;-81
2021/03/14 05:52:49;;;;;;;;;26.00;25.25;;;;;5.89;72.64;101558.19;4846677;29;12479;-80
2021/03/14 05:55:26;;;;;;;;;19.50;18.50;;;;;5.96;72.62;101555.16;4849245;29;11750;-82
2021/03/14 05:57:58;;;;;;;;;13.50;13.50;;;;;5.93;71.65;101558.50;4845577;29;11753;-81
2021/03/14 06:00:50;;;;;;;;;15.75;14.75;;;;;6.02;71.73;101563.13;4845146;29;11146;-82
2021/03/14 06:03:17;;;;;;;;;18.00;14.75;;;;;6.03;71.09;101569.44;4845166;29;11738;-81
2021/03/14 06:05:45;;;;;;;;;17.25;16.50;;;;;6.07;71.28;101567.78;4860392;29;11680;-80
2021/03/14 06:08:13;;;;;;;;;13.50;13.50;;;;;6.17;71.63;101567.75;4835386;29;11836;-81
2021/03/14 06:10:48;;;;;;;;;19.00;17.75;;;;;6.11;71.53;101566.94;4858068;29;11685;-80
2021/03/14 06:13:17;;;;;;;;;13.50;13.50;;;;;6.18;70.35;101558.41;4859522;29;11877;-81
2021/03/14 06:16:01;;;;;;;;;6.75;6.75;;;;;6.25;70.37;101566.34;4847234;29;11734;-80
2021/03/14 06:18:29;;;;;;;;;16.75;16.25;;;;;6.36;70.11;101567.94;4860340;29;12428;-80
2021/03/14 06:21:23;;;;;;;;;21.00;18.00;;;;;6.47;69.45;101565.97;4859501;29;12449;-80
2021/03/14 06:24:19;;;;;;;;;16.75;16.75;;;;;6.27;70.58;101570.44;4860982;29;11893;-80
2021/03/14 06:27:54;;;;;;;;;26.00;25.50;;;;;6.51;69.41;101569.78;4869511;29;11751;-80
2021/03/14 06:30:26;;;;;;;;;18.25;18.25;;;;;6.46;69.72;101567.91;4867360;29;11735;-82
2021/03/14 06:33:25;;;;;;;;;13.00;13.00;;;;;6.61;69.21;101572.50;4874124;29;11715;-83
2021/03/14 06:35:58;;;;;;;;;14.50;13.75;;;;;6.68;69.29;101573.03;4881978;29;11707;-81
2021/03/14 06:38:29;;;;;;;;;17.00;16.00;;;;;6.63;68.90;101573.03;4874566;29;11738;-80
2021/03/14 06:40:59;;;;;;;;;17.25;16.75;;;;;6.54;69.59;101575.56;4858938;29;11764;-81
2021/03/14 06:43:30;;;;;;;;;15.25;15.25;;;;;6.68;69.18;101573.84;4883530;29;11724;-82
2021/03/14 06:46:27;;;;;;;;;17.25;17.25;;;;;6.63;68.63;101570.28;4882127;29;11725;-77
2021/03/14 06:49:26;;;;;;;;;31.50;31.00;;;;;6.94;69.90;101563.50;4880336;29;11820;-82
2021/03/14 06:51:56;;;;;;;;;14.00;14.00;;;;;6.96;68.12;101566.78;4876680;29;11743;-83
2021/03/14 06:54:33;;;;;;;;;16.50;15.00;;;;;6.95;68.03;101572.56;4875068;29;11722;-83
2021/03/14 06:57:10;;;;;;;;;15.00;15.00;;;;;7.13;67.98;101557.31;4863987;29;11721;-82
2021/03/14 06:59:59;;;;;;;;;14.50;14.00;;;;;7.04;67.38;101570.03;4869050;29;11698;-82
2021/03/14 07:02:30;;;;;;;;;17.50;17.00;;;;;7.23;67.59;101571.00;4860055;29;11715;-83
2021/03/14 07:05:25;;;;;;;;;19.00;19.00;;;;;7.02;66.86;101567.59;4862682;29;11779;-81
2021/03/14 07:07:52;;;;;;;;;23.00;23.00;;;;;7.22;67.56;101558.38;4870350;29;11849;-81
2021/03/14 07:10:20;;;;;;;;;17.75;16.25;;;;;7.13;66.43;101554.56;4878494;29;11749;-83
2021/03/14 07:12:48;;;;;;;;;18.00;18.00;;;;;7.36;65.97;101556.59;4861404;29;11806;-81
2021/03/14 07:15:18;;;;;;;;;21.75;16.50;;;;;7.28;66.48;101559.94;4854959;29;11775;-80
2021/03/14 07:17:57;;;;;;;;;20.00;19.25;;;;;7.57;66.52;101554.47;4861413;29;11713;-81
2021/03/14 07:20:41;;;;;;;;;24.00;23.00;;;;;7.71;66.13;101555.44;4854623;29;11762;-82
2021/03/14 07:23:33;;;;;;;;;23.25;23.25;;;;;7.70;65.41;101555.72;4856881;29;11721;-82
2021/03/14 07:26:05;;;;;;;;;20.50;20.50;;;;;7.75;65.27;101555.69;4845845;29;11710;-82
2021/03/14 07:29:01;;;;;;;;;24.25;24.25;;;;;7.90;65.99;101547.28;4848401;29;11834;-82
2021/03/14 07:31:57;;;;;;;;;25.00;25.00;;;;;7.76;64.78;101540.81;4866387;29;11750;-82
2021/03/14 07:34:53;;;;;;;;;26.00;24.00;;;;;7.67;63.95;101556.31;4856426;29;11742;-82
2021/03/14 07:37:50;;;;;;;;;28.00;24.25;;;;;7.84;63.46;101548.44;4850439;29;11710;-83
2021/03/14 07:40:35;;;;;;;;;24.00;24.00;;;;;7.89;64.29;101556.63;4867999;29;11779;-82
2021/03/14 07:43:19;;;;;;;;;23.00;23.00;;;;;7.99;64.11;101562.03;4878426;29;11739;-80
2021/03/14 07:46:22;;;;;;;;;24.75;24.75;;;;;7.89;63.82;101562.13;4868472;29;12044;-81
2021/03/14 07:49:21;;;;;;;;;22.50;22.50;;;;;8.03;63.13;101560.34;4869186;29;11751;-83
2021/03/14 07:52:29;;;;;;;;;26.25;26.25;;;;;8.07;63.79;101550.38;4874509;29;12561;-82
2021/03/14 07:55:20;;;;;;;;;30.25;27.50;;;;;8.11;63.46;101553.34;4876686;29;11741;-83
2021/03/14 07:57:53;;;;;;;;;21.00;21.00;;;;;8.29;63.31;101551.78;4844013;29;11746;-81
2021/03/14 08:00:52;;;;;;;;;28.50;28.50;;;;;8.46;62.46;101562.34;4864661;29;12458;-84
2021/03/14 08:03:36;;;;;;;;;27.00;25.75;;;;;8.69;62.27;101558.72;4851703;29;12488;-83
2021/03/14 08:06:05;;;;;;;;;31.25;30.25;;;;;8.84;62.39;101547.47;4867608;29;11736;-85
2021/03/14 08:09:01;;;;;;;;;24.25;23.25;;;;;9.09;62.12;101551.78;4851890;29;11839;-83
2021/03/14 08:12:18;;;;;;;;;30.00;28.00;;;;;9.13;62.25;101552.84;4862562;29;11732;-82
2021/03/14 08:15:28;;;;;;;;;24.50;22.50;;;;;9.32;61.82;101549.22;4855745;29;11737;-84
2021/03/14 08:18:05;;;;;;;;;26.50;26.50;;;;;9.58;61.46;101550.41;4875697;29;11844;-80
2021/03/14 08:20:46;;;;;;;;;23.50;23.00;;;;;9.58;60.34;101539.34;4857301;29;11725;-83
2021/03/14 08:23:39;;;;;;;;;27.00;26.00;;;;;9.55;61.10;101531.69;4863575;29;11699;-82
2021/03/14 08:26:37;;;;;;;;;27.50;27.50;;;;;9.98;59.95;101532.28;4871638;29;11753;-83
2021/03/14 08:29:45;;;;;;;;;30.50;26.50;;;;;10.21;58.82;101535.97;4870378;29;11905;-80
2021/03/14 08:32:23;;;;;;;;;18.25;18.25;;;;;10.25;59.56;101533.41;4852328;29;11746;-85
2021/03/14 08:34:54;;;;;;;;;19.75;19.00;;;;;10.27;59.28;101531.16;4892878;29;11675;-84
2021/03/14 08:38:25;;;;;;;;;18.50;18.00;;;;;10.56;59.10;101528.03;4878920;29;11628;-84
2021/03/14 08:41:17;;;;;;;;;17.25;17.25;;;;;10.53;56.91;101523.97;4876833;29;11637;-82
2021/03/14 08:44:28;;;;;;;;;18.00;17.75;;;;;10.36;58.06;101534.03;4886348;29;11660;-86
2021/03/14 08:47:27;;;;;;;;;25.25;21.25;;;;;10.31;57.64;101540.47;4885659;29;11701;-86
2021/03/14 08:50:24;;;;;;;;;19.50;19.50;;;;;10.06;57.94;101525.22;4878280;29;11614;-80
2021/03/14 08:53:21;;;;;;;;;18.25;18.25;;;;;10.13;57.00;101525.63;4874215;29;12323;-82
2021/03/14 08:55:50;;;;;;;;;16.25;16.25;;;;;10.14;57.49;101529.19;4890960;29;11650;-80
2021/03/14 08:59:03;;;;;;;;;14.25;14.25;;;;;9.83;58.97;101528.97;4885705;29;11647;-82
2021/03/14 09:01:32;;;;;;;;;15.25;15.25;;;;;9.89;58.69;101522.22;4889479;29;11664;-82
2021/03/14 09:04:34;;;;;;;;;17.50;17.50;;;;;10.05;58.74;101526.34;4888832;29;11804;-81
2021/03/14 09:07:11;;;;;;;;;16.00;13.00;;;;;10.06;58.18;101529.91;4872752;29;11654;-84
2021/03/14 09:10:15;;;;;;;;;17.25;17.25;;;;;10.12;58.30;101524.00;4875478;29;11653;-81
2021/03/14 09:13:11;;;;;;;;;11.75;11.75;;;;;10.49;57.58;101522.13;4876841;29;11684;-81
2021/03/14 09:16:06;;;;;;;;;16.50;13.50;;;;;10.56;56.61;101528.03;4877445;29;11713;-83
2021/03/14 09:19:02;;;;;;;;;4.00;4.00;;;;;10.61;56.18;101525.19;4890546;29;11505;-82
2021/03/14 09:21:48;;;;;;;;;16.25;14.25;;;;;10.53;55.83;101526.72;4873970;29;11612;-82
2021/03/14 09:24:52;;;;;;;;;12.75;12.75;;;;;10.50;56.45;101529.28;4881836;29;11481;-80
2021/03/14 09:27:27;;;;;;;;;16.25;16.00;;;;;10.41;56.42;101531.97;4875392;29;11294;-82
2021/03/14 09:30:24;;;;;;;;;14.50;14.50;;;;;10.38;56.87;101523.47;4878935;29;11423;-80
2021/03/14 09:32:59;;;;;;;;;13.00;12.50;;;;;10.60;56.13;101526.31;4874312;29;11620;-82
2021/03/14 09:35:55;;;;;;;;;18.75;18.75;;;;;10.67;56.32;101520.34;4872171;29;11486;-82
2021/03/14 09:39:01;;;;;;;;;14.00;14.00;;;;;10.57;56.05;101529.69;4862492;29;11654;-81
2021/03/14 09:41:46;;;;;;;;;11.00;11.00;;;;;10.78;56.45;101522.56;4860980;29;11312;-82
2021/03/14 09:44:18;;;;;;;;;12.25;12.25;;;;;10.74;54.90;101523.50;4874353;29;11330;-81
2021/03/14 09:47:14;;;;;;;;;13.50;13.50;;;;;10.72;55.79;101520.22;4875128;29;11301;-81
2021/03/14 09:50:10;;;;;;;;;14.75;13.00;;;;;10.69;56.42;101521.66;4890376;29;12084;-83
2021/03/14 09:53:07;;;;;;;;;12.50;12.50;;;;;10.82;55.05;101526.34;4869302;29;11642;-80
2021/03/14 09:56:05;;;;;;;;;13.25;13.25;;;;;11.18;54.32;101506.09;4875765;29;11602;-81
2021/03/14 09:59:02;;;;;;;;;13.25;13.25;;;;;11.03;54.49;101504.53;4876991;29;11392;-86
2021/03/14 10:01:59;;;;;;;;;11.25;11.25;;;;;11.65;53.57;101499.06;4878525;29;11301;-82
2021/03/14 10:04:57;;;;;;;;;13.75;13.00;;;;;11.50;52.57;101502.25;4877224;29;11195;-83
2021/03/14 10:07:53;;;;;;;;;14.75;14.75;;;;;11.82;52.96;101495.59;4887629;29;11123;-81
2021/03/14 10:10:51;;;;;;;;;13.75;13.75;;;;;11.90;51.38;101494.81;4874232;29;11135;-81
2021/03/14 10:13:51;;;;;;;;;12.00;12.00;;;;;11.79;52.01;101492.59;4893104;29;10896;-79
2021/03/14 10:16:48;;;;;;;;;12.75;12.75;;;;;11.73;51.59;101483.63;4879457;29;10909;-82
2021/03/14 10:19:30;;;;;;;;;14.75;14.75;;;;;11.88;53.02;101469.34;4880602;29;10840;-82
2021/03/14 10:22:31;;;;;;;;;10.75;10.75;;;;;12.17;51.84;101466.00;4883870;29;10927;-78
2021/03/14 10:25:33;;;;;;;;;14.75;14.00;;;;;12.57;49.71;101460.34;4893583;29;10575;-81
2021/03/14 10:28:38;;;;;;;;;10.00;10.00;;;;;12.54;51.19;101458.25;4882344;29;11471;-79
2021/03/14 10:31:34;;;;;;;;;11.75;11.75;;;;;12.27;50.13;101458.53;4877209;29;10632;-82
2021/03/14 10:34:33;;;;;;;;;13.25;12.75;;;;;12.29;50.47;101453.50;4893895;29;10515;-83
2021/03/14 10:37:36;;;;;;;;;11.00;11.00;;;;;11.88;50.02;101454.66;4888663;29;11196;-79
2021/03/14 10:40:32;;;;;;;;;14.00;14.00;;;;;11.85;50.62;101450.59;4889954;29;10661;-83
2021/03/14 10:43:28;;;;;;;;;10.00;10.00;;;;;12.05;50.98;101451.16;4877489;29;10677;-81
2021/03/14 10:46:39;;;;;;;;;10.75;10.75;;;;;11.93;51.17;101451.75;4878233;29;10858;-81
2021/03/14 10:49:35;;;;;;;;;11.50;11.50;;;;;11.80;50.92;101445.19;4879407;29;10554;-83
2021/03/14 10:52:13;;;;;;;;;10.25;10.25;;;;;11.79;49.93;101434.41;4879846;29;10731;-82
2021/03/14 10:55:28;;;;;;;;;13.00;13.00;;;;;11.75;51.30;101434.25;4880966;29;11468;-82
2021/03/14 10:58:23;;;;;;;;;9.00;9.00;;;;;11.50;50.40;101421.06;4884173;29;10854;-85
2021/03/14 11:01:40;;;;;;;;;10.00;10.00;;;;;11.75;50.90;101414.03;4880700;29;10736;-84
2021/03/14 11:05:00;;;;;;;;;12.25;12.25;;;;;11.82;52.19;101414.41;4884120;29;10575;-83
2021/03/14 11:07:39;;;;;;;;;11.00;11.00;;;;;12.06;50.55;101413.97;4880723;29;10695;-86
2021/03/14 11:10:17;;;;;;;;;10.50;10.50;;;;;11.85;50.36;101408.22;4891173;29;10681;-84
2021/03/14 11:12:50;;;;;;;;;16.00;16.00;;;;;11.90;50.75;101414.44;4895912;29;10583;-81
2021/03/14 11:15:45;;;;;;;;;11.75;11.75;;;;;12.02;50.03;101402.69;4896048;29;10783;-84
2021/03/14 11:18:40;;;;;;;;;17.00;16.00;;;;;12.18;50.04;101398.31;4877963;29;10553;-82
2021/03/14 11:21:22;;;;;;;;;12.75;12.75;;;;;12.25;48.69;101400.59;4875643;29;10831;-85
2021/03/14 11:24:21;;;;;;;;;10.00;10.00;;;;;12.29;47.59;101393.28;4882734;29;10642;-84
2021/03/14 11:26:51;;;;;;;;;10.25;9.00;;;;;12.29;47.20;101395.25;4861149;29;10586;-85
2021/03/14 11:29:49;;;;;;;;;11.75;11.00;;;;;12.34;46.55;101393.09;4891612;29;10462;-83
2021/03/14 11:32:37;;;;;;;;;11.75;11.75;;;;;11.89;47.62;101382.31;4880568;29;10587;-87
2021/03/14 11:35:10;;;;;;;;;16.25;16.25;;;;;12.20;48.10;101384.97;4895081;29;10489;-84
2021/03/14 11:37:45;;;;;;;;;13.50;13.50;;;;;12.27;47.17;101380.88;4896162;29;10504;-85
2021/03/14 11:40:36;;;;;;;;;14.50;14.00;;;;;12.21;44.71;101380.22;4855457;29;10347;-82
2021/03/14 11:43:14;;;;;;;;;14.25;14.25;;;;;12.42;44.80;101380.38;4895181;29;10495;-84
2021/03/14 11:45:41;;;;;;;;;13.75;13.75;;;;;12.47;44.58;101377.44;4874779;29;10497;-82
2021/03/14 11:48:24;;;;;;;;;17.75;17.50;;;;;12.43;43.46;101374.53;4894984;29;10611;-84
2021/03/14 11:50:58;;;;;;;;;16.50;15.00;;;;;12.45;42.56;101369.47;4888224;29;10743;-83
2021/03/14 11:53:27;;;;;;;;;15.00;15.00;;;;;12.47;43.19;101366.34;4892480;29;10491;-84
2021/03/14 11:55:59;;;;;;;;;15.75;15.75;;;;;12.90;41.05;101363.53;4897362;29;10443;-84
2021/03/14 11:58:32;;;;;;;;;14.50;14.50;;;;;12.99;41.05;101364.31;4875489;29;10592;-84
2021/03/14 12:01:05;;;;;;;;;3.75;3.75;;;;;13.20;40.27;101346.97;4892897;29;10467;-84
2021/03/14 12:04:03;;;;;;;;;16.50;16.25;;;;;13.18;39.84;101344.47;4878217;29;10388;-83
2021/03/14 12:06:50;;;;;;;;;15.25;15.25;;;;;13.16;41.28;101346.78;4894357;29;10372;-87
2021/03/14 12:09:20;;;;;;;;;5.00;5.00;;;;;13.14;39.25;101349.06;4873579;29;10258;-81
2021/03/14 12:11:52;;;;;;;;;14.50;14.50;;;;;12.86;40.78;101337.56;4853497;29;10396;-86
2021/03/14 12:14:35;;;;;;;;;;;;;;;;;;;;;
2021/03/14 12:17:11;;;;;;;;;16.00;16.00;;;;;12.89;39.18;101342.47;4887746;29;10235;-83
2021/03/14 12:19:53;;;;;;;;;12.75;12.75;;;;;12.80;38.88;101344.41;4876593;29;10531;-84
2021/03/14 12:22:24;;;;;;;;;11.00;11.00;;;;;12.66;37.75;101332.72;4880664;29;10400;-81
2021/03/14 12:25:20;;;;;;;;;11.50;11.50;;;;;13.04;38.25;101341.94;4876411;29;11029;-79
2021/03/14 12:27:50;;;;;;;;;9.50;9.25;;;;;12.86;36.55;101343.09;4886848;29;10417;-81
2021/03/14 12:30:22;;;;;;;;;9.00;9.00;;;;;12.68;35.85;101347.06;4894861;29;11082;-81
2021/03/14 12:33:14;;;;;;;;;8.00;8.00;;;;;12.77;36.06;101339.53;4886775;29;10148;-85
2021/03/14 12:35:46;;;;;;;;;9.00;9.00;;;;;12.95;36.73;101330.00;4870518;29;10191;-82
2021/03/14 12:38:19;;;;;;;;;6.25;6.25;;;;;12.82;35.62;101330.25;4873075;29;11007;-84
2021/03/14 12:40:59;;;;;;;;;7.25;6.75;;;;;12.73;35.94;101328.31;4874515;29;10251;-83
2021/03/14 12:43:38;;;;;;;;;6.25;6.25;;;;;13.06;35.83;101322.97;4867174;29;10190;-81
2021/03/14 12:46:33;;;;;;;;;9.50;9.50;;;;;12.92;34.93;101322.34;4871524;29;10184;-81
2021/03/14 12:49:05;;;;;;;;;2.00;2.00;;;;;13.06;34.55;101325.75;4865992;29;10008;-82
2021/03/14 12:51:36;;;;;;;;;5.75;5.75;;;;;12.84;34.34;101331.53;4880847;29;9924;-83
2021/03/14 12:54:03;;;;;;;;;4.50;4.50;;;;;12.81;33.46;101332.19;4893243;29;9996;-82
2021/03/14 12:56:32;;;;;;;;;3.50;3.50;;;;;12.50;33.16;101341.56;4891442;29;10001;-79
2021/03/14 12:59:01;;;;;;;;;5.25;5.25;;;;;12.43;34.03;101334.88;4880231;29;10092;-81
2021/03/14 13:01:30;;;;;;;;;8.00;8.00;;;;;12.29;34.83;101335.03;4840988;29;10122;-80
2021/03/14 13:04:02;;;;;;;;;8.00;8.00;;;;;12.26;34.30;101335.69;4887797;29;10287;-81